Terminal Aerodrome Forecast
Issued by NWS Mt. Holly, NJ

Home | Current Version | Previous Version | Text Only | Print | Product List | Glossary On
Versions: 1 2 3 4 5 6 7 8 9 10 11 12 13 14
695
FTUS41 KPHI 251120
TAFABE
TAF
KABE 251120Z 2512/2612 08009KT P6SM OVC015
     FM251400 07012KT 5SM -RA OVC008
     FM252000 07012G18KT 3SM RA OVC010
     FM260000 06011KT 4SM BR OVC008
     FM260500 04010KT 3SM BR OVC004=

USA.gov is the U.S. government's official web portal to all federal, state and local government web resources and services.